sensor_id;sensor_type;location;lat;lon;timestamp;P1;durP1;ratioP1;P2;durP2;ratioP2
15142;SDS011;7672;50.834;6.286;2022-12-18T00:01:24;26.47;;;17.40;;
15142;SDS011;7672;50.834;6.286;2022-12-18T00:03:53;23.17;;;15.80;;
15142;SDS011;7672;50.834;6.286;2022-12-18T00:06:22;23.33;;;15.77;;
15142;SDS011;7672;50.834;6.286;2022-12-18T00:08:50;22.73;;;15.03;;
15142;SDS011;7672;50.834;6.286;2022-12-18T00:11:19;22.70;;;14.50;;
15142;SDS011;7672;50.834;6.286;2022-12-18T00:13:49;21.87;;;14.67;;
15142;SDS011;7672;50.834;6.286;2022-12-18T00:16:19;22.87;;;14.60;;
15142;SDS011;7672;50.834;6.286;2022-12-18T00:18:49;20.47;;;14.23;;
15142;SDS011;7672;50.834;6.286;2022-12-18T00:21:20;23.80;;;14.57;;
15142;SDS011;7672;50.834;6.286;2022-12-18T00:23:48;24.20;;;13.77;;
15142;SDS011;7672;50.834;6.286;2022-12-18T00:26:17;19.83;;;13.00;;
15142;SDS011;7672;50.834;6.286;2022-12-18T00:28:48;21.17;;;12.50;;
15142;SDS011;7672;50.834;6.286;2022-12-18T00:31:17;20.13;;;12.23;;
15142;SDS011;7672;50.834;6.286;2022-12-18T00:33:48;17.00;;;12.20;;
15142;SDS011;7672;50.834;6.286;2022-12-18T00:36:20;20.10;;;11.47;;
15142;SDS011;7672;50.834;6.286;2022-12-18T00:38:57;16.80;;;9.77;;
15142;SDS011;7672;50.834;6.286;2022-12-18T00:41:25;19.77;;;11.73;;
15142;SDS011;7672;50.834;6.286;2022-12-18T00:44:13;19.27;;;11.47;;
15142;SDS011;7672;50.834;6.286;2022-12-18T00:46:42;19.53;;;12.17;;
15142;SDS011;7672;50.834;6.286;2022-12-18T00:49:10;19.47;;;11.97;;
15142;SDS011;7672;50.834;6.286;2022-12-18T00:51:37;18.37;;;12.00;;
15142;SDS011;7672;50.834;6.286;2022-12-18T00:54:04;18.27;;;12.83;;
15142;SDS011;7672;50.834;6.286;2022-12-18T00:56:31;22.77;;;12.83;;
15142;SDS011;7672;50.834;6.286;2022-12-18T00:58:58;21.40;;;12.13;;
15142;SDS011;7672;50.834;6.286;2022-12-18T01:01:25;19.47;;;12.40;;
15142;SDS011;7672;50.834;6.286;2022-12-18T01:03:51;20.47;;;11.37;;
15142;SDS011;7672;50.834;6.286;2022-12-18T01:06:18;17.97;;;12.47;;
15142;SDS011;7672;50.834;6.286;2022-12-18T01:08:45;22.00;;;12.60;;
15142;SDS011;7672;50.834;6.286;2022-12-18T01:11:14;19.73;;;12.67;;
15142;SDS011;7672;50.834;6.286;2022-12-18T01:13:43;20.77;;;12.60;;
15142;SDS011;7672;50.834;6.286;2022-12-18T01:16:11;19.60;;;11.97;;
15142;SDS011;7672;50.834;6.286;2022-12-18T01:18:40;20.43;;;12.93;;
15142;SDS011;7672;50.834;6.286;2022-12-18T01:21:08;19.43;;;11.57;;
15142;SDS011;7672;50.834;6.286;2022-12-18T01:23:38;20.33;;;13.13;;
15142;SDS011;7672;50.834;6.286;2022-12-18T01:26:10;21.03;;;12.70;;
15142;SDS011;7672;50.834;6.286;2022-12-18T01:28:42;19.03;;;11.90;;
15142;SDS011;7672;50.834;6.286;2022-12-18T01:31:10;19.70;;;12.63;;
15142;SDS011;7672;50.834;6.286;2022-12-18T01:33:40;19.23;;;12.03;;
15142;SDS011;7672;50.834;6.286;2022-12-18T01:36:07;19.60;;;12.40;;
15142;SDS011;7672;50.834;6.286;2022-12-18T01:38:40;24.60;;;12.70;;
15142;SDS011;7672;50.834;6.286;2022-12-18T01:41:08;27.07;;;13.30;;
15142;SDS011;7672;50.834;6.286;2022-12-18T01:46:21;22.63;;;12.50;;
15142;SDS011;7672;50.834;6.286;2022-12-18T01:48:52;17.20;;;11.83;;
15142;SDS011;7672;50.834;6.286;2022-12-18T01:51:23;20.77;;;11.17;;
15142;SDS011;7672;50.834;6.286;2022-12-18T01:53:55;17.90;;;10.47;;
15142;SDS011;7672;50.834;6.286;2022-12-18T01:56:24;18.17;;;10.37;;
15142;SDS011;7672;50.834;6.286;2022-12-18T02:01:27;15.63;;;9.27;;
15142;SDS011;7672;50.834;6.286;2022-12-18T02:04:13;16.40;;;10.50;;
15142;SDS011;7672;50.834;6.286;2022-12-18T02:07:12;15.70;;;10.20;;
15142;SDS011;7672;50.834;6.286;2022-12-18T02:09:48;15.40;;;10.20;;
15142;SDS011;7672;50.834;6.286;2022-12-18T02:12:23;16.03;;;10.23;;
15142;SDS011;7672;50.834;6.286;2022-12-18T02:15:05;17.03;;;10.43;;
15142;SDS011;7672;50.834;6.286;2022-12-18T02:17:59;17.97;;;11.00;;
15142;SDS011;7672;50.834;6.286;2022-12-18T02:22:03;17.40;;;9.97;;
15142;SDS011;7672;50.834;6.286;2022-12-18T02:24:43;17.90;;;10.73;;
15142;SDS011;7672;50.834;6.286;2022-12-18T02:27:18;16.97;;;10.63;;
15142;SDS011;7672;50.834;6.286;2022-12-18T02:29:51;19.80;;;10.93;;
15142;SDS011;7672;50.834;6.286;2022-12-18T02:32:25;20.87;;;9.97;;
15142;SDS011;7672;50.834;6.286;2022-12-18T02:34:57;14.97;;;10.33;;
15142;SDS011;7672;50.834;6.286;2022-12-18T02:37:26;12.97;;;9.80;;
15142;SDS011;7672;50.834;6.286;2022-12-18T02:39:56;17.07;;;10.33;;
15142;SDS011;7672;50.834;6.286;2022-12-18T02:42:25;17.83;;;10.70;;
15142;SDS011;7672;50.834;6.286;2022-12-18T02:44:54;20.80;;;11.10;;
15142;SDS011;7672;50.834;6.286;2022-12-18T02:47:22;17.60;;;11.07;;
15142;SDS011;7672;50.834;6.286;2022-12-18T02:53:09;21.07;;;12.63;;
15142;SDS011;7672;50.834;6.286;2022-12-18T03:04:20;20.93;;;14.23;;
15142;SDS011;7672;50.834;6.286;2022-12-18T03:06:49;26.87;;;14.70;;
15142;SDS011;7672;50.834;6.286;2022-12-18T03:09:27;28.67;;;13.50;;
15142;SDS011;7672;50.834;6.286;2022-12-18T03:12:07;22.23;;;13.60;;
15142;SDS011;7672;50.834;6.286;2022-12-18T03:15:35;26.00;;;15.07;;
15142;SDS011;7672;50.834;6.286;2022-12-18T03:17:52;25.87;;;14.30;;
15142;SDS011;7672;50.834;6.286;2022-12-18T03:20:25;25.37;;;14.43;;
15142;SDS011;7672;50.834;6.286;2022-12-18T03:23:02;25.83;;;14.07;;
15142;SDS011;7672;50.834;6.286;2022-12-18T03:25:38;21.83;;;13.67;;
15142;SDS011;7672;50.834;6.286;2022-12-18T03:28:12;24.43;;;13.77;;
15142;SDS011;7672;50.834;6.286;2022-12-18T03:30:44;25.33;;;13.73;;
15142;SDS011;7672;50.834;6.286;2022-12-18T03:33:24;24.70;;;15.13;;
15142;SDS011;7672;50.834;6.286;2022-12-18T03:35:58;24.80;;;14.33;;
15142;SDS011;7672;50.834;6.286;2022-12-18T03:38:25;22.63;;;14.90;;
15142;SDS011;7672;50.834;6.286;2022-12-18T03:47:21;21.63;;;13.90;;
15142;SDS011;7672;50.834;6.286;2022-12-18T03:49:59;24.07;;;13.67;;
15142;SDS011;7672;50.834;6.286;2022-12-18T03:52:39;24.07;;;14.37;;
15142;SDS011;7672;50.834;6.286;2022-12-18T03:55:15;25.40;;;15.37;;
15142;SDS011;7672;50.834;6.286;2022-12-18T03:57:47;27.33;;;14.77;;
15142;SDS011;7672;50.834;6.286;2022-12-18T04:00:17;21.43;;;14.33;;
15142;SDS011;7672;50.834;6.286;2022-12-18T04:02:48;25.33;;;15.10;;
15142;SDS011;7672;50.834;6.286;2022-12-18T04:05:22;21.87;;;13.93;;
15142;SDS011;7672;50.834;6.286;2022-12-18T04:07:53;20.30;;;13.80;;
15142;SDS011;7672;50.834;6.286;2022-12-18T04:10:22;23.30;;;13.97;;
15142;SDS011;7672;50.834;6.286;2022-12-18T04:12:49;24.17;;;14.80;;
15142;SDS011;7672;50.834;6.286;2022-12-18T04:15:15;23.07;;;14.03;;
15142;SDS011;7672;50.834;6.286;2022-12-18T04:17:47;25.30;;;14.07;;
15142;SDS011;7672;50.834;6.286;2022-12-18T04:20:15;22.67;;;14.07;;
15142;SDS011;7672;50.834;6.286;2022-12-18T04:22:43;23.53;;;13.50;;
15142;SDS011;7672;50.834;6.286;2022-12-18T04:25:10;23.10;;;14.40;;
15142;SDS011;7672;50.834;6.286;2022-12-18T04:27:37;20.83;;;12.60;;
15142;SDS011;7672;50.834;6.286;2022-12-18T04:30:05;20.00;;;14.17;;
15142;SDS011;7672;50.834;6.286;2022-12-18T04:32:33;22.50;;;14.77;;
15142;SDS011;7672;50.834;6.286;2022-12-18T04:35:00;23.90;;;15.07;;
15142;SDS011;7672;50.834;6.286;2022-12-18T04:37:30;20.83;;;13.27;;
15142;SDS011;7672;50.834;6.286;2022-12-18T04:39:56;24.07;;;14.90;;
15142;SDS011;7672;50.834;6.286;2022-12-18T04:42:23;24.93;;;14.80;;
15142;SDS011;7672;50.834;6.286;2022-12-18T04:44:50;23.40;;;15.20;;
15142;SDS011;7672;50.834;6.286;2022-12-18T04:47:17;23.03;;;14.37;;
15142;SDS011;7672;50.834;6.286;2022-12-18T04:49:43;21.03;;;14.03;;
15142;SDS011;7672;50.834;6.286;2022-12-18T04:52:10;21.53;;;13.53;;
15142;SDS011;7672;50.834;6.286;2022-12-18T04:54:37;21.90;;;14.03;;
15142;SDS011;7672;50.834;6.286;2022-12-18T04:57:03;19.47;;;13.70;;
15142;SDS011;7672;50.834;6.286;2022-12-18T04:59:30;25.27;;;14.03;;
15142;SDS011;7672;50.834;6.286;2022-12-18T05:01:57;22.03;;;14.07;;
15142;SDS011;7672;50.834;6.286;2022-12-18T05:04:24;25.17;;;13.97;;
15142;SDS011;7672;50.834;6.286;2022-12-18T05:06:51;25.27;;;14.53;;
15142;SDS011;7672;50.834;6.286;2022-12-18T05:09:17;25.00;;;14.63;;
15142;SDS011;7672;50.834;6.286;2022-12-18T05:11:44;21.03;;;12.70;;
15142;SDS011;7672;50.834;6.286;2022-12-18T05:14:12;19.00;;;13.43;;
15142;SDS011;7672;50.834;6.286;2022-12-18T05:16:39;22.53;;;14.17;;
15142;SDS011;7672;50.834;6.286;2022-12-18T05:19:06;22.93;;;13.27;;
15142;SDS011;7672;50.834;6.286;2022-12-18T05:21:33;17.57;;;11.77;;
15142;SDS011;7672;50.834;6.286;2022-12-18T05:24:00;23.87;;;13.80;;
15142;SDS011;7672;50.834;6.286;2022-12-18T05:26:26;25.23;;;13.70;;
15142;SDS011;7672;50.834;6.286;2022-12-18T05:28:53;23.83;;;13.83;;
15142;SDS011;7672;50.834;6.286;2022-12-18T05:31:20;19.23;;;13.43;;
15142;SDS011;7672;50.834;6.286;2022-12-18T05:33:47;21.67;;;13.43;;
15142;SDS011;7672;50.834;6.286;2022-12-18T05:36:13;19.70;;;12.80;;
15142;SDS011;7672;50.834;6.286;2022-12-18T05:38:40;20.60;;;14.27;;
15142;SDS011;7672;50.834;6.286;2022-12-18T05:41:07;21.47;;;12.67;;
15142;SDS011;7672;50.834;6.286;2022-12-18T05:43:36;22.17;;;13.63;;
15142;SDS011;7672;50.834;6.286;2022-12-18T05:46:06;22.23;;;14.27;;
15142;SDS011;7672;50.834;6.286;2022-12-18T05:48:38;23.13;;;13.33;;
15142;SDS011;7672;50.834;6.286;2022-12-18T05:51:06;23.53;;;14.07;;
15142;SDS011;7672;50.834;6.286;2022-12-18T05:53:35;21.30;;;14.47;;
15142;SDS011;7672;50.834;6.286;2022-12-18T05:56:04;21.83;;;13.80;;
15142;SDS011;7672;50.834;6.286;2022-12-18T05:58:35;22.03;;;14.33;;
15142;SDS011;7672;50.834;6.286;2022-12-18T06:01:09;22.23;;;13.40;;
15142;SDS011;7672;50.834;6.286;2022-12-18T06:03:45;21.53;;;14.40;;
15142;SDS011;7672;50.834;6.286;2022-12-18T06:06:17;20.50;;;13.67;;
15142;SDS011;7672;50.834;6.286;2022-12-18T06:08:51;23.77;;;13.43;;
15142;SDS011;7672;50.834;6.286;2022-12-18T06:11:21;21.70;;;14.83;;
15142;SDS011;7672;50.834;6.286;2022-12-18T06:13:56;22.23;;;14.17;;
15142;SDS011;7672;50.834;6.286;2022-12-18T06:16:28;24.60;;;14.60;;
15142;SDS011;7672;50.834;6.286;2022-12-18T06:19:00;24.93;;;15.43;;
15142;SDS011;7672;50.834;6.286;2022-12-18T06:21:30;23.77;;;15.13;;
15142;SDS011;7672;50.834;6.286;2022-12-18T06:23:59;23.37;;;16.17;;
15142;SDS011;7672;50.834;6.286;2022-12-18T06:29:21;22.37;;;14.90;;
15142;SDS011;7672;50.834;6.286;2022-12-18T06:31:48;22.90;;;15.30;;
15142;SDS011;7672;50.834;6.286;2022-12-18T06:34:15;26.23;;;16.30;;
15142;SDS011;7672;50.834;6.286;2022-12-18T06:36:44;28.03;;;15.30;;
15142;SDS011;7672;50.834;6.286;2022-12-18T06:39:11;26.70;;;16.13;;
15142;SDS011;7672;50.834;6.286;2022-12-18T06:41:38;24.47;;;15.90;;
15142;SDS011;7672;50.834;6.286;2022-12-18T06:44:05;25.37;;;15.90;;
15142;SDS011;7672;50.834;6.286;2022-12-18T06:46:32;23.73;;;15.50;;
15142;SDS011;7672;50.834;6.286;2022-12-18T06:48:59;25.03;;;15.43;;
15142;SDS011;7672;50.834;6.286;2022-12-18T06:51:27;23.23;;;14.20;;
15142;SDS011;7672;50.834;6.286;2022-12-18T06:53:54;23.63;;;15.73;;
15142;SDS011;7672;50.834;6.286;2022-12-18T06:56:21;22.30;;;14.93;;
15142;SDS011;7672;50.834;6.286;2022-12-18T06:58:48;22.67;;;15.77;;
15142;SDS011;7672;50.834;6.286;2022-12-18T07:01:15;23.67;;;15.27;;
15142;SDS011;7672;50.834;6.286;2022-12-18T07:03:42;25.73;;;15.40;;
15142;SDS011;7672;50.834;6.286;2022-12-18T07:06:17;21.07;;;13.30;;
15142;SDS011;7672;50.834;6.286;2022-12-18T07:08:46;25.07;;;15.13;;
15142;SDS011;7672;50.834;6.286;2022-12-18T07:11:14;28.83;;;16.07;;
15142;SDS011;7672;50.834;6.286;2022-12-18T07:13:42;28.40;;;17.83;;
15142;SDS011;7672;50.834;6.286;2022-12-18T07:19:06;26.10;;;16.87;;
15142;SDS011;7672;50.834;6.286;2022-12-18T07:56:25;25.77;;;16.90;;
15142;SDS011;7672;50.834;6.286;2022-12-18T08:25:50;26.00;;;16.87;;
15142;SDS011;7672;50.834;6.286;2022-12-18T08:28:49;26.67;;;17.07;;
15142;SDS011;7672;50.834;6.286;2022-12-18T08:31:29;23.03;;;15.63;;
15142;SDS011;7672;50.834;6.286;2022-12-18T08:34:05;25.63;;;16.90;;
15142;SDS011;7672;50.834;6.286;2022-12-18T08:36:52;24.27;;;15.80;;
15142;SDS011;7672;50.834;6.286;2022-12-18T08:39:25;26.13;;;17.50;;
15142;SDS011;7672;50.834;6.286;2022-12-18T09:57:18;20.90;;;12.37;;
15142;SDS011;7672;50.834;6.286;2022-12-18T10:00:49;19.70;;;12.67;;
15142;SDS011;7672;50.834;6.286;2022-12-18T10:04:31;18.80;;;12.17;;
15142;SDS011;7672;50.834;6.286;2022-12-18T10:07:36;22.53;;;12.60;;
15142;SDS011;7672;50.834;6.286;2022-12-18T10:23:26;17.80;;;12.03;;
15142;SDS011;7672;50.834;6.286;2022-12-18T10:26:07;18.90;;;12.43;;
15142;SDS011;7672;50.834;6.286;2022-12-18T10:28:36;21.10;;;11.77;;
15142;SDS011;7672;50.834;6.286;2022-12-18T10:31:07;19.73;;;11.63;;
15142;SDS011;7672;50.834;6.286;2022-12-18T10:33:49;18.80;;;12.27;;
15142;SDS011;7672;50.834;6.286;2022-12-18T10:36:17;23.47;;;12.87;;
15142;SDS011;7672;50.834;6.286;2022-12-18T10:38:43;25.00;;;12.73;;
15142;SDS011;7672;50.834;6.286;2022-12-18T10:46:46;19.37;;;12.03;;
15142;SDS011;7672;50.834;6.286;2022-12-18T10:49:25;16.43;;;11.10;;
15142;SDS011;7672;50.834;6.286;2022-12-18T11:00:25;20.80;;;12.17;;
15142;SDS011;7672;50.834;6.286;2022-12-18T11:02:56;18.93;;;11.70;;
15142;SDS011;7672;50.834;6.286;2022-12-18T11:05:28;18.80;;;11.13;;
15142;SDS011;7672;50.834;6.286;2022-12-18T11:07:59;19.13;;;12.07;;
15142;SDS011;7672;50.834;6.286;2022-12-18T11:10:31;21.30;;;12.67;;
15142;SDS011;7672;50.834;6.286;2022-12-18T11:15:46;20.77;;;13.03;;
15142;SDS011;7672;50.834;6.286;2022-12-18T11:20:50;20.03;;;12.70;;
15142;SDS011;7672;50.834;6.286;2022-12-18T11:23:34;20.17;;;12.27;;
15142;SDS011;7672;50.834;6.286;2022-12-18T11:26:03;19.90;;;13.00;;
15142;SDS011;7672;50.834;6.286;2022-12-18T11:31:24;19.53;;;12.20;;
15142;SDS011;7672;50.834;6.286;2022-12-18T11:36:48;23.13;;;13.97;;
15142;SDS011;7672;50.834;6.286;2022-12-18T11:39:17;21.90;;;14.23;;
15142;SDS011;7672;50.834;6.286;2022-12-18T11:42:09;20.33;;;13.43;;
15142;SDS011;7672;50.834;6.286;2022-12-18T11:44:51;24.23;;;13.50;;
15142;SDS011;7672;50.834;6.286;2022-12-18T11:47:27;19.40;;;13.87;;
15142;SDS011;7672;50.834;6.286;2022-12-18T11:53:17;22.40;;;13.43;;
15142;SDS011;7672;50.834;6.286;2022-12-18T12:04:59;18.97;;;12.47;;
15142;SDS011;7672;50.834;6.286;2022-12-18T12:07:55;23.53;;;13.73;;
15142;SDS011;7672;50.834;6.286;2022-12-18T12:10:57;22.73;;;14.10;;
15142;SDS011;7672;50.834;6.286;2022-12-18T12:13:50;21.73;;;14.13;;
15142;SDS011;7672;50.834;6.286;2022-12-18T12:16:37;19.57;;;12.60;;
15142;SDS011;7672;50.834;6.286;2022-12-18T12:31:51;21.17;;;13.17;;
15142;SDS011;7672;50.834;6.286;2022-12-18T12:34:44;21.53;;;14.17;;
15142;SDS011;7672;50.834;6.286;2022-12-18T12:38:04;22.00;;;12.93;;
15142;SDS011;7672;50.834;6.286;2022-12-18T12:40:39;22.80;;;12.83;;
15142;SDS011;7672;50.834;6.286;2022-12-18T12:46:17;24.17;;;12.70;;
15142;SDS011;7672;50.834;6.286;2022-12-18T12:48:50;22.77;;;13.93;;
15142;SDS011;7672;50.834;6.286;2022-12-18T12:54:01;22.60;;;13.00;;
15142;SDS011;7672;50.834;6.286;2022-12-18T12:56:37;21.47;;;14.10;;
15142;SDS011;7672;50.834;6.286;2022-12-18T12:59:25;22.07;;;13.50;;
15142;SDS011;7672;50.834;6.286;2022-12-18T13:02:46;24.03;;;13.83;;
15142;SDS011;7672;50.834;6.286;2022-12-18T13:08:28;21.27;;;13.80;;
15142;SDS011;7672;50.834;6.286;2022-12-18T13:11:02;22.93;;;13.53;;
15142;SDS011;7672;50.834;6.286;2022-12-18T13:13:50;23.17;;;12.93;;
15142;SDS011;7672;50.834;6.286;2022-12-18T13:16:24;22.57;;;14.10;;
15142;SDS011;7672;50.834;6.286;2022-12-18T13:18:56;27.03;;;13.47;;
15142;SDS011;7672;50.834;6.286;2022-12-18T13:23:57;23.60;;;14.03;;
15142;SDS011;7672;50.834;6.286;2022-12-18T13:26:56;25.30;;;15.37;;
15142;SDS011;7672;50.834;6.286;2022-12-18T13:29:39;23.43;;;14.73;;
15142;SDS011;7672;50.834;6.286;2022-12-18T13:32:20;23.47;;;15.13;;
15142;SDS011;7672;50.834;6.286;2022-12-18T13:37:53;20.83;;;14.20;;
15142;SDS011;7672;50.834;6.286;2022-12-18T13:43:20;26.97;;;16.20;;
15142;SDS011;7672;50.834;6.286;2022-12-18T13:51:32;23.43;;;14.37;;
15142;SDS011;7672;50.834;6.286;2022-12-18T13:54:17;22.23;;;15.00;;
15142;SDS011;7672;50.834;6.286;2022-12-18T13:56:59;23.73;;;15.13;;
15142;SDS011;7672;50.834;6.286;2022-12-18T13:59:32;27.13;;;14.43;;
15142;SDS011;7672;50.834;6.286;2022-12-18T14:02:13;25.40;;;12.80;;
15142;SDS011;7672;50.834;6.286;2022-12-18T14:04:48;22.80;;;13.10;;
15142;SDS011;7672;50.834;6.286;2022-12-18T14:07:17;31.17;;;16.30;;
15142;SDS011;7672;50.834;6.286;2022-12-18T14:09:59;23.17;;;13.63;;
15142;SDS011;7672;50.834;6.286;2022-12-18T14:12:48;20.87;;;14.80;;
15142;SDS011;7672;50.834;6.286;2022-12-18T14:17:54;23.50;;;14.77;;
15142;SDS011;7672;50.834;6.286;2022-12-18T14:20:29;23.50;;;13.77;;
15142;SDS011;7672;50.834;6.286;2022-12-18T14:22:58;22.67;;;14.57;;
15142;SDS011;7672;50.834;6.286;2022-12-18T14:25:27;25.17;;;15.87;;
15142;SDS011;7672;50.834;6.286;2022-12-18T14:28:12;26.23;;;15.13;;
15142;SDS011;7672;50.834;6.286;2022-12-18T14:30:42;21.70;;;14.13;;
15142;SDS011;7672;50.834;6.286;2022-12-18T14:33:15;23.80;;;15.07;;
15142;SDS011;7672;50.834;6.286;2022-12-18T14:35:56;24.03;;;15.23;;
15142;SDS011;7672;50.834;6.286;2022-12-18T14:43:40;28.90;;;16.30;;
15142;SDS011;7672;50.834;6.286;2022-12-18T14:49:23;24.23;;;15.50;;
15142;SDS011;7672;50.834;6.286;2022-12-18T14:51:52;24.53;;;14.97;;
15142;SDS011;7672;50.834;6.286;2022-12-18T14:54:23;27.93;;;14.87;;
15142;SDS011;7672;50.834;6.286;2022-12-18T14:59:44;24.40;;;15.10;;
15142;SDS011;7672;50.834;6.286;2022-12-18T15:02:25;28.83;;;16.83;;
15142;SDS011;7672;50.834;6.286;2022-12-18T15:05:01;24.00;;;14.53;;
15142;SDS011;7672;50.834;6.286;2022-12-18T15:07:56;23.17;;;14.53;;
15142;SDS011;7672;50.834;6.286;2022-12-18T15:10:27;23.07;;;14.30;;
15142;SDS011;7672;50.834;6.286;2022-12-18T15:18:00;24.40;;;15.50;;
15142;SDS011;7672;50.834;6.286;2022-12-18T15:20:59;28.60;;;13.60;;
15142;SDS011;7672;50.834;6.286;2022-12-18T15:26:16;23.60;;;14.50;;
15142;SDS011;7672;50.834;6.286;2022-12-18T15:28:47;22.43;;;13.07;;
15142;SDS011;7672;50.834;6.286;2022-12-18T15:31:33;25.33;;;14.83;;
15142;SDS011;7672;50.834;6.286;2022-12-18T15:36:34;27.80;;;15.93;;
15142;SDS011;7672;50.834;6.286;2022-12-18T15:39:04;26.57;;;16.27;;
15142;SDS011;7672;50.834;6.286;2022-12-18T15:41:33;23.27;;;15.27;;
15142;SDS011;7672;50.834;6.286;2022-12-18T15:44:02;24.70;;;15.37;;
15142;SDS011;7672;50.834;6.286;2022-12-18T15:46:47;27.47;;;16.60;;
15142;SDS011;7672;50.834;6.286;2022-12-18T15:49:14;25.40;;;15.97;;
15142;SDS011;7672;50.834;6.286;2022-12-18T15:51:40;23.50;;;14.20;;
15142;SDS011;7672;50.834;6.286;2022-12-18T15:54:11;26.40;;;16.17;;
15142;SDS011;7672;50.834;6.286;2022-12-18T15:56:42;21.70;;;14.57;;
15142;SDS011;7672;50.834;6.286;2022-12-18T15:59:27;26.03;;;16.33;;
15142;SDS011;7672;50.834;6.286;2022-12-18T16:01:55;22.60;;;13.37;;
15142;SDS011;7672;50.834;6.286;2022-12-18T16:04:22;27.50;;;17.23;;
15142;SDS011;7672;50.834;6.286;2022-12-18T16:06:50;22.90;;;14.67;;
15142;SDS011;7672;50.834;6.286;2022-12-18T16:09:37;27.63;;;14.70;;
15142;SDS011;7672;50.834;6.286;2022-12-18T16:12:05;25.30;;;14.87;;
15142;SDS011;7672;50.834;6.286;2022-12-18T16:14:40;28.13;;;17.10;;
15142;SDS011;7672;50.834;6.286;2022-12-18T16:17:09;27.87;;;16.00;;
15142;SDS011;7672;50.834;6.286;2022-12-18T16:19:38;26.17;;;14.33;;
15142;SDS011;7672;50.834;6.286;2022-12-18T16:22:05;26.47;;;16.07;;
15142;SDS011;7672;50.834;6.286;2022-12-18T16:24:38;24.07;;;15.10;;
15142;SDS011;7672;50.834;6.286;2022-12-18T16:27:05;27.07;;;15.90;;
15142;SDS011;7672;50.834;6.286;2022-12-18T16:29:32;24.67;;;14.80;;
15142;SDS011;7672;50.834;6.286;2022-12-18T16:31:59;27.50;;;15.50;;
15142;SDS011;7672;50.834;6.286;2022-12-18T16:34:30;26.53;;;15.70;;
15142;SDS011;7672;50.834;6.286;2022-12-18T16:37:02;26.83;;;16.10;;
15142;SDS011;7672;50.834;6.286;2022-12-18T16:39:32;28.63;;;15.83;;
15142;SDS011;7672;50.834;6.286;2022-12-18T16:42:04;29.17;;;16.53;;
15142;SDS011;7672;50.834;6.286;2022-12-18T16:44:45;25.37;;;16.20;;
15142;SDS011;7672;50.834;6.286;2022-12-18T16:47:14;28.17;;;16.90;;
15142;SDS011;7672;50.834;6.286;2022-12-18T16:49:43;28.43;;;17.10;;
15142;SDS011;7672;50.834;6.286;2022-12-18T16:52:11;28.73;;;17.23;;
15142;SDS011;7672;50.834;6.286;2022-12-18T16:54:38;29.73;;;16.50;;
15142;SDS011;7672;50.834;6.286;2022-12-18T16:57:05;26.23;;;16.23;;
15142;SDS011;7672;50.834;6.286;2022-12-18T16:59:32;29.73;;;17.40;;
15142;SDS011;7672;50.834;6.286;2022-12-18T17:01:59;33.17;;;17.43;;
15142;SDS011;7672;50.834;6.286;2022-12-18T17:04:27;25.03;;;15.70;;
15142;SDS011;7672;50.834;6.286;2022-12-18T17:06:53;29.67;;;18.23;;
15142;SDS011;7672;50.834;6.286;2022-12-18T17:09:20;27.77;;;17.73;;
15142;SDS011;7672;50.834;6.286;2022-12-18T17:11:51;32.00;;;18.43;;
15142;SDS011;7672;50.834;6.286;2022-12-18T17:14:20;33.57;;;19.40;;
15142;SDS011;7672;50.834;6.286;2022-12-18T17:16:50;28.30;;;17.00;;
15142;SDS011;7672;50.834;6.286;2022-12-18T17:19:38;26.33;;;15.77;;
15142;SDS011;7672;50.834;6.286;2022-12-18T17:22:05;31.73;;;17.13;;
15142;SDS011;7672;50.834;6.286;2022-12-18T17:24:33;29.70;;;17.17;;
15142;SDS011;7672;50.834;6.286;2022-12-18T17:27:01;28.23;;;16.97;;
15142;SDS011;7672;50.834;6.286;2022-12-18T17:29:29;29.93;;;17.43;;
15142;SDS011;7672;50.834;6.286;2022-12-18T17:31:56;26.53;;;17.63;;
15142;SDS011;7672;50.834;6.286;2022-12-18T17:34:25;31.23;;;16.57;;
15142;SDS011;7672;50.834;6.286;2022-12-18T17:36:53;31.60;;;17.17;;
15142;SDS011;7672;50.834;6.286;2022-12-18T17:39:20;28.33;;;16.43;;
15142;SDS011;7672;50.834;6.286;2022-12-18T17:41:47;28.27;;;15.83;;
15142;SDS011;7672;50.834;6.286;2022-12-18T17:44:14;29.73;;;16.27;;
15142;SDS011;7672;50.834;6.286;2022-12-18T17:46:42;31.27;;;17.70;;
15142;SDS011;7672;50.834;6.286;2022-12-18T17:49:11;34.13;;;17.47;;
15142;SDS011;7672;50.834;6.286;2022-12-18T17:51:39;31.63;;;15.70;;
15142;SDS011;7672;50.834;6.286;2022-12-18T17:54:07;33.43;;;18.03;;
15142;SDS011;7672;50.834;6.286;2022-12-18T17:59:04;31.90;;;16.57;;
15142;SDS011;7672;50.834;6.286;2022-12-18T18:01:32;32.37;;;17.03;;
15142;SDS011;7672;50.834;6.286;2022-12-18T18:04:03;29.17;;;17.03;;
15142;SDS011;7672;50.834;6.286;2022-12-18T18:06:32;32.57;;;18.27;;
15142;SDS011;7672;50.834;6.286;2022-12-18T18:09:04;30.33;;;17.43;;
15142;SDS011;7672;50.834;6.286;2022-12-18T18:11:41;30.50;;;16.87;;
15142;SDS011;7672;50.834;6.286;2022-12-18T18:14:30;29.07;;;16.83;;
15142;SDS011;7672;50.834;6.286;2022-12-18T18:16:58;29.23;;;16.23;;
15142;SDS011;7672;50.834;6.286;2022-12-18T18:19:30;27.50;;;15.70;;
15142;SDS011;7672;50.834;6.286;2022-12-18T18:21:58;33.63;;;17.67;;
15142;SDS011;7672;50.834;6.286;2022-12-18T18:24:25;29.93;;;16.73;;
15142;SDS011;7672;50.834;6.286;2022-12-18T18:26:55;26.77;;;16.40;;
15142;SDS011;7672;50.834;6.286;2022-12-18T18:29:24;28.33;;;16.13;;
15142;SDS011;7672;50.834;6.286;2022-12-18T18:31:54;26.67;;;16.63;;
15142;SDS011;7672;50.834;6.286;2022-12-18T18:34:22;28.97;;;16.63;;
15142;SDS011;7672;50.834;6.286;2022-12-18T18:36:52;23.40;;;15.00;;
15142;SDS011;7672;50.834;6.286;2022-12-18T18:39:19;28.30;;;15.87;;
15142;SDS011;7672;50.834;6.286;2022-12-18T18:41:46;23.00;;;14.43;;
15142;SDS011;7672;50.834;6.286;2022-12-18T18:44:14;23.70;;;14.30;;
15142;SDS011;7672;50.834;6.286;2022-12-18T18:46:43;27.77;;;15.67;;
15142;SDS011;7672;50.834;6.286;2022-12-18T18:49:10;27.23;;;15.23;;
15142;SDS011;7672;50.834;6.286;2022-12-18T18:51:39;27.90;;;15.23;;
15142;SDS011;7672;50.834;6.286;2022-12-18T18:54:07;25.43;;;14.30;;
15142;SDS011;7672;50.834;6.286;2022-12-18T18:56:34;23.67;;;14.53;;
15142;SDS011;7672;50.834;6.286;2022-12-18T18:59:21;24.23;;;14.63;;
15142;SDS011;7672;50.834;6.286;2022-12-18T19:01:57;23.17;;;14.07;;
15142;SDS011;7672;50.834;6.286;2022-12-18T19:04:29;27.60;;;16.17;;
15142;SDS011;7672;50.834;6.286;2022-12-18T19:06:56;24.70;;;15.00;;
15142;SDS011;7672;50.834;6.286;2022-12-18T19:09:23;22.60;;;13.20;;
15142;SDS011;7672;50.834;6.286;2022-12-18T19:11:50;24.27;;;14.17;;
15142;SDS011;7672;50.834;6.286;2022-12-18T19:14:35;29.53;;;15.73;;
15142;SDS011;7672;50.834;6.286;2022-12-18T19:17:02;25.30;;;15.63;;
15142;SDS011;7672;50.834;6.286;2022-12-18T19:19:29;25.20;;;15.00;;
15142;SDS011;7672;50.834;6.286;2022-12-18T19:21:56;25.90;;;14.67;;
15142;SDS011;7672;50.834;6.286;2022-12-18T19:24:23;25.30;;;14.43;;
15142;SDS011;7672;50.834;6.286;2022-12-18T19:26:49;25.90;;;16.80;;
15142;SDS011;7672;50.834;6.286;2022-12-18T19:29:19;26.53;;;15.67;;
15142;SDS011;7672;50.834;6.286;2022-12-18T19:31:46;24.80;;;15.70;;
15142;SDS011;7672;50.834;6.286;2022-12-18T19:34:13;26.73;;;16.23;;
15142;SDS011;7672;50.834;6.286;2022-12-18T19:36:40;25.30;;;16.20;;
15142;SDS011;7672;50.834;6.286;2022-12-18T19:39:14;26.60;;;16.30;;
15142;SDS011;7672;50.834;6.286;2022-12-18T19:41:42;30.37;;;16.57;;
15142;SDS011;7672;50.834;6.286;2022-12-18T19:44:11;31.43;;;16.60;;
15142;SDS011;7672;50.834;6.286;2022-12-18T19:46:40;27.37;;;16.27;;
15142;SDS011;7672;50.834;6.286;2022-12-18T19:49:11;31.47;;;17.10;;